Hovedside
METAR-TAF:

METAR-TAF

Lufthavner :

Jönköping lufthavn

Jönköping, Sverige

breddegrad: 57-46N, lengdegrad: 014-05E, høyde over havet: 226 m

Gjeldene værobservasjon

Denne rapporten ble laget for 11 minutter siden, klokken 17:20 UTC
Vind 5 kt fra Sørøst
Temperatur 19°C
Luftfuktighet 56%
Trykk 1027 hPa
Sikt 10 km eller mer
ingen skyer under 1500 m og ingen bygeskyer

METAR: ESGJ 261720Z 13005KT CAVOK 19/10 Q1027

Tid: 19:31 (17:31 UTC)


TAF: fraværende

Værobservasjoner og værvarsel for over 4000 flyplasser (METAR- og TAF-rapporter).

Tilgjengelige stasjoner er representert av de røde og gule prikkene på kartet.

Hold musepekeren over prikken for å se navnet på stasjonen.

Klikk så for å se værobservasjoner og -varsler.

For å forandre kartet kan du klikke på den grønne knappen med svart kryss for å zoome inn, på den grønne knappen med strek for å zoome ut, eller på de grønne pilene for å se tilstøtende kart.


METAR-TAF: